Urb Calvario, Puerto Rico
Current Conditions -  °F | °C
As of 7:53 PM on Monday 20 Oct 2014 (Local Time) from TJNR Reporting Station
Few Clouds Few Clouds  
Wind Chill: 81°   Ceiling: Unl
Heat Index: 86°   Visibility: 10mi
Dew Point: 74°   Wind: 6mph
Humidity: 79%   Direction: 70°ENE
Pressure: 29.96"   Gusts: NA
Location:  18.0547°N, 65.8738°W
Report Text: TJNR 202353Z AUTO 07005KT 10SM FEW023 27/23 A2996 RMK AO2 SLP146 60001 T02720233 10311 20261 53008
Loading
Personal Weather Stations






























Interactive Weather Map
Tropical Storm Tracking
New forecast layout! Learn more

10-Day Weather Forecast

Advertisements
Track Severe Weather on mobile